Impacts TAF Board
For situational awareness. Not to be used for flight planning purposes.
IDs:

KGCK - Garden City Rgnl, KS, US

Issued at 2320 UTC 28 Nov 2020
Updated at 0124 UTC 29 Nov 2020
Potential Impact None Slight Moderate High
Time<<29/14Z 29/15Z 29/16Z 29/17Z 29/18Z 29/19Z 29/20Z 29/21Z 29/22Z 29/23Z 30/00Z 30/01Z 30/02Z>>
Type PRVL PRVL PRVL PRVL PRVL PRVL PRVL PRVL PRVL PRVL
VIS >6 >6 >6 >6 >6 >6 >6 >6 >6 >6
CIG -- -- -- -- -- -- -- -- -- --
Cover SKC SKC SKC SKC SKC SKC SKC SKC SKC SKC
FltCat VFR VFR VFR VFR VFR VFR VFR VFR VFR VFR
WX -- -- -- -- -- -- -- -- -- --
WDir 360 10 10 10 10 10 10 360 360 360
WSpd 20 29 29 29 29 29 29 15 15 15
WGst 30 39 39 39 39 39 39 25 25 25
Raw TAF
KGCK 282320Z 2900/2924 23012KT P6SM BKN090
  FM290600 27005KT P6SM BKN070
  FM291200 36020G30KT P6SM SKC
  FM291500 01029G39KT P6SM SKC
  FM292100 36015G25KT P6SM SKC


METAR Board
Radar Display
Forecast Discussion
For situational awareness. Not to be used for flight planning purposes.